TAF KMSO
KMSO 081722Z 0818/0918 25008KT 6SM -SHRA BR BKN030 OVC040 WS020/27040KT FM082000 28015G25KT P6SM VCSH OVC050 FM090000 30008KT 5SM -SHSN BKN030 OVC050 FM090400 30006KT P6SM VCSH BKN050=
METAR KMSO
WC KMSO
WS KMSO
WV KMSO